createdAt,value
2019-03-18T00:02:18.682Z,18.73
2019-03-18T00:04:51.380Z,17.82
2019-03-18T00:07:23.241Z,18.90
2019-03-18T00:09:54.790Z,18.85
2019-03-18T00:12:26.022Z,19.03
2019-03-18T00:15:01.480Z,20.77
2019-03-18T00:17:29.777Z,16.42
2019-03-18T00:20:00.989Z,21.00
2019-03-18T00:22:34.090Z,18.15
2019-03-18T00:25:06.890Z,20.97
2019-03-18T00:27:37.121Z,22.98
2019-03-18T00:30:10.502Z,19.17
2019-03-18T00:32:40.725Z,17.10
2019-03-18T00:35:12.140Z,19.27
2019-03-18T00:37:42.373Z,20.85
2019-03-18T00:40:15.661Z,23.38
2019-03-18T00:42:45.981Z,24.72
2019-03-18T00:45:16.152Z,22.22
2019-03-18T00:47:47.581Z,20.70
2019-03-18T00:50:17.740Z,17.52
2019-03-18T00:52:47.963Z,16.50
2019-03-18T00:55:18.349Z,17.32
2019-03-18T00:57:48.579Z,19.82
2019-03-18T01:00:19.546Z,22.75
2019-03-18T01:02:50.133Z,19.25
2019-03-18T01:05:20.544Z,22.10
2019-03-18T01:07:50.794Z,18.90
2019-03-18T01:10:20.956Z,22.65
2019-03-18T01:12:51.238Z,19.95
2019-03-18T01:15:27.954Z,21.70
2019-03-18T01:17:53.263Z,22.65
2019-03-18T01:20:23.486Z,20.32
2019-03-18T01:22:53.749Z,17.02
2019-03-18T01:25:23.918Z,18.20
2019-03-18T01:27:54.145Z,22.87
2019-03-18T01:30:24.318Z,19.70
2019-03-18T01:32:54.569Z,20.68
2019-03-18T01:35:24.727Z,23.20
2019-03-18T01:37:54.965Z,27.58
2019-03-18T01:40:26.167Z,25.35
2019-03-18T01:42:56.384Z,19.75
2019-03-18T01:45:39.779Z,21.73
2019-03-18T01:47:58.628Z,26.17
2019-03-18T01:50:28.793Z,26.40
2019-03-18T01:52:59.015Z,21.68
2019-03-18T01:55:29.190Z,30.37
2019-03-18T01:57:59.427Z,20.23
2019-03-18T02:00:29.597Z,27.20
2019-03-18T02:02:59.880Z,25.48
2019-03-18T02:05:30.113Z,30.45
2019-03-18T02:08:00.327Z,35.55
2019-03-18T02:10:30.505Z,36.98
2019-03-18T02:13:00.738Z,41.30
2019-03-18T02:15:30.935Z,39.60
2019-03-18T02:18:02.349Z,50.40
2019-03-18T02:20:32.661Z,45.75
2019-03-18T02:23:02.990Z,45.98
2019-03-18T02:25:33.173Z,44.45
2019-03-18T02:28:03.410Z,64.05
2019-03-18T02:30:33.602Z,59.58
2019-03-18T02:33:03.832Z,64.67
2019-03-18T02:35:34.007Z,72.10
2019-03-18T02:38:04.237Z,75.05
2019-03-18T02:40:35.575Z,54.03
2019-03-18T02:43:05.789Z,66.10
2019-03-18T02:45:36.023Z,66.25
2019-03-18T02:48:06.259Z,67.03
2019-03-18T02:50:36.490Z,75.62
2019-03-18T02:53:06.737Z,79.58
2019-03-18T02:55:37.025Z,71.92
2019-03-18T02:58:07.340Z,73.35
2019-03-18T03:00:37.856Z,76.90
2019-03-18T03:03:08.076Z,71.50
2019-03-18T03:05:38.319Z,74.87
2019-03-18T03:08:08.539Z,68.10
2019-03-18T03:10:38.781Z,80.03
2019-03-18T03:13:09.005Z,75.17
2019-03-18T03:15:39.228Z,66.87
2019-03-18T03:18:09.461Z,61.90
2019-03-18T03:20:39.688Z,63.30
2019-03-18T03:23:09.915Z,69.70
2019-03-18T03:25:40.156Z,71.20
2019-03-18T03:28:10.391Z,72.85
2019-03-18T03:30:40.633Z,70.40
2019-03-18T03:33:10.850Z,73.02
2019-03-18T03:35:41.076Z,69.37
2019-03-18T03:38:11.316Z,70.50
2019-03-18T03:40:41.567Z,70.90
2019-03-18T03:43:11.805Z,69.40
2019-03-18T03:45:42.030Z,70.72
2019-03-18T03:48:12.236Z,74.77
2019-03-18T03:50:42.465Z,78.72
2019-03-18T03:53:12.687Z,74.17
2019-03-18T03:55:43.018Z,77.97
2019-03-18T03:58:13.264Z,75.83
2019-03-18T04:00:43.492Z,79.00
2019-03-18T04:03:13.729Z,80.22
2019-03-18T04:05:43.953Z,76.82
2019-03-18T04:08:14.176Z,72.72
2019-03-18T04:10:44.392Z,77.82
2019-03-18T04:13:14.608Z,71.02
2019-03-18T04:15:46.152Z,80.12
2019-03-18T04:18:16.362Z,69.32
2019-03-18T04:20:46.686Z,66.35
2019-03-18T04:23:16.905Z,71.10
2019-03-18T04:25:47.146Z,62.88
2019-03-18T04:28:17.414Z,77.72
2019-03-18T04:30:47.620Z,61.77
2019-03-18T04:33:17.855Z,61.85
2019-03-18T04:35:48.083Z,61.70
2019-03-18T04:38:18.319Z,61.77
2019-03-18T04:40:48.560Z,65.57
2019-03-18T04:43:18.779Z,61.75
2019-03-18T04:45:49.007Z,63.40
2019-03-18T04:48:19.215Z,61.13
2019-03-18T04:50:49.462Z,58.30
2019-03-18T04:53:19.688Z,58.55
2019-03-18T04:55:49.907Z,64.58
2019-03-18T04:58:20.142Z,60.70
2019-03-18T05:00:50.378Z,54.85
2019-03-18T05:03:21.911Z,51.37
2019-03-18T05:05:52.150Z,54.53
2019-03-18T05:08:23.587Z,60.83
2019-03-18T05:10:53.816Z,56.10
2019-03-18T05:13:26.443Z,57.73
2019-03-18T05:15:55.911Z,59.33
2019-03-18T05:18:26.132Z,61.45
2019-03-18T05:20:56.351Z,24.63
2019-03-18T05:23:26.585Z,11.80
2019-03-18T05:25:56.800Z,4.95
2019-03-18T05:28:27.107Z,2.00
2019-03-18T05:30:57.315Z,1.90
2019-03-18T05:33:27.521Z,2.92
2019-03-18T05:35:57.720Z,2.98
2019-03-18T05:38:27.918Z,2.58
2019-03-18T05:40:58.139Z,1.92
2019-03-18T05:43:28.402Z,3.10
2019-03-18T05:45:58.615Z,3.37
2019-03-18T05:48:28.821Z,1.55
2019-03-18T05:50:59.029Z,2.83
2019-03-18T05:53:29.252Z,4.03
2019-03-18T05:55:59.467Z,7.28
2019-03-18T05:58:29.658Z,5.83
2019-03-18T06:00:59.863Z,3.02
2019-03-18T06:03:30.075Z,2.98
2019-03-18T06:06:00.269Z,3.85
2019-03-18T06:08:30.481Z,6.05
2019-03-18T06:11:00.697Z,1.55
2019-03-18T06:13:30.903Z,4.67
2019-03-18T06:16:01.313Z,1.52
2019-03-18T06:18:31.583Z,1.50
2019-03-18T06:21:01.843Z,2.75
2019-03-18T06:23:32.043Z,1.25
2019-03-18T06:26:02.263Z,2.15
2019-03-18T06:28:32.471Z,1.20
2019-03-18T06:31:02.680Z,2.87
2019-03-18T06:33:32.888Z,2.22
2019-03-18T06:36:03.084Z,3.15
2019-03-18T06:38:33.296Z,2.75
2019-03-18T06:41:03.515Z,1.45
2019-03-18T06:43:34.717Z,4.20
2019-03-18T06:46:04.941Z,3.33
2019-03-18T06:48:35.368Z,2.40
2019-03-18T06:51:05.585Z,1.72
2019-03-18T06:53:35.733Z,3.37
2019-03-18T06:56:05.984Z,3.37
2019-03-18T06:58:36.157Z,2.65
2019-03-18T07:01:06.480Z,3.20
2019-03-18T07:03:36.680Z,6.17
2019-03-18T07:06:06.882Z,1.20
2019-03-18T07:08:37.204Z,3.55
2019-03-18T07:11:07.410Z,2.75
2019-03-18T07:13:37.624Z,2.65
2019-03-18T07:16:07.843Z,3.10
2019-03-18T07:18:38.041Z,3.58
2019-03-18T07:21:08.267Z,3.83
2019-03-18T07:23:38.497Z,2.02
2019-03-18T07:26:08.756Z,2.15
2019-03-18T07:28:38.979Z,5.90
2019-03-18T07:31:09.200Z,3.70
2019-03-18T07:33:39.424Z,3.52
2019-03-18T07:36:09.634Z,5.10
2019-03-18T07:38:39.841Z,3.75
2019-03-18T07:41:10.054Z,7.87
2019-03-18T07:43:40.291Z,9.20
2019-03-18T07:46:10.503Z,9.08
2019-03-18T07:48:40.710Z,12.07
2019-03-18T07:51:10.937Z,7.97
2019-03-18T07:53:41.156Z,8.73
2019-03-18T07:56:11.427Z,9.33
2019-03-18T07:58:41.644Z,11.65
2019-03-18T08:01:11.875Z,13.45
2019-03-18T08:03:42.117Z,13.88
2019-03-18T08:06:12.327Z,9.25
2019-03-18T08:08:42.636Z,9.65
2019-03-18T08:11:12.867Z,15.43
2019-03-18T08:13:43.079Z,9.45
2019-03-18T08:16:13.314Z,17.73
2019-03-18T08:18:59.091Z,33.95
2019-03-18T08:21:47.504Z,21.23
2019-03-18T08:24:33.335Z,15.23
2019-03-18T08:27:23.402Z,10.98
2019-03-18T08:30:13.271Z,13.22
2019-03-18T08:32:58.759Z,23.98
2019-03-18T08:35:37.771Z,11.12
2019-03-18T08:38:12.890Z,15.30
2019-03-18T08:40:45.399Z,5.30
2019-03-18T08:43:18.063Z,9.23
2019-03-18T08:45:51.314Z,11.05
2019-03-18T08:48:24.308Z,5.40
2019-03-18T08:50:57.294Z,7.67
2019-03-18T08:53:29.535Z,9.15
2019-03-18T08:56:02.801Z,9.23
2019-03-18T08:58:33.843Z,10.65
2019-03-18T09:01:04.077Z,9.38
2019-03-18T09:03:34.758Z,15.88
2019-03-18T09:06:05.228Z,13.60
2019-03-18T09:08:35.429Z,10.58
2019-03-18T09:11:05.696Z,13.22
2019-03-18T09:13:35.849Z,10.03
2019-03-18T09:16:06.498Z,14.87
2019-03-18T09:18:36.674Z,16.65
2019-03-18T09:21:06.945Z,18.30
2019-03-18T09:23:37.620Z,16.87
2019-03-18T09:26:07.913Z,10.93
2019-03-18T09:28:38.204Z,13.55
2019-03-18T09:31:08.464Z,7.30
2019-03-18T09:33:38.737Z,13.90
2019-03-18T09:36:08.954Z,14.28
2019-03-18T09:38:39.130Z,21.10
2019-03-18T09:41:09.339Z,17.37
2019-03-18T09:43:39.509Z,13.70
2019-03-18T09:46:09.774Z,10.68
2019-03-18T09:48:40.491Z,15.55
2019-03-18T09:51:10.723Z,21.82
2019-03-18T09:53:40.890Z,21.35
2019-03-18T09:56:11.165Z,11.10
2019-03-18T09:58:41.376Z,20.17
2019-03-18T10:01:12.222Z,7.92
2019-03-18T10:03:42.731Z,8.70
2019-03-18T10:06:14.606Z,9.60
2019-03-18T10:08:44.906Z,20.12
2019-03-18T10:11:15.210Z,10.13
2019-03-18T10:13:45.417Z,14.98
2019-03-18T10:16:15.632Z,6.33
2019-03-18T10:18:45.794Z,6.80
2019-03-18T10:21:16.039Z,7.87
2019-03-18T10:23:46.225Z,9.40
2019-03-18T10:26:16.502Z,12.68
2019-03-18T10:28:46.662Z,4.35
2019-03-18T10:31:16.934Z,13.05
2019-03-18T10:33:47.128Z,8.93
2019-03-18T10:36:17.395Z,4.40
2019-03-18T10:38:47.812Z,5.05
2019-03-18T10:41:18.063Z,11.08
2019-03-18T10:43:48.266Z,3.77
2019-03-18T10:46:18.521Z,9.15
2019-03-18T10:48:48.772Z,9.88
2019-03-18T10:51:19.025Z,7.42
2019-03-18T10:53:49.269Z,6.17
2019-03-18T10:56:19.570Z,5.67
2019-03-18T10:58:49.832Z,6.55
2019-03-18T11:01:20.091Z,10.35
2019-03-18T11:03:50.333Z,8.80
2019-03-18T11:06:20.540Z,9.85
2019-03-18T11:08:50.766Z,4.53
2019-03-18T11:11:21.019Z,5.75
2019-03-18T11:13:51.299Z,9.60
2019-03-18T11:16:21.618Z,5.17
2019-03-18T11:18:51.873Z,5.65
2019-03-18T11:21:22.105Z,5.28
2019-03-18T11:23:52.338Z,9.43
2019-03-18T11:26:22.590Z,8.28
2019-03-18T11:28:52.909Z,13.72
2019-03-18T11:31:23.195Z,7.20
2019-03-18T11:33:53.437Z,7.55
2019-03-18T11:36:23.696Z,6.83
2019-03-18T11:38:53.910Z,11.18
2019-03-18T11:41:24.141Z,5.45
2019-03-18T11:43:54.377Z,5.75
2019-03-18T11:46:24.567Z,5.85
2019-03-18T11:48:54.793Z,4.85
2019-03-18T11:51:25.094Z,7.30
2019-03-18T11:53:55.422Z,4.95
2019-03-18T11:56:25.672Z,4.83
2019-03-18T11:58:55.919Z,4.85
2019-03-18T12:01:26.153Z,8.95
2019-03-18T12:03:56.369Z,6.80
2019-03-18T12:06:26.616Z,7.37
2019-03-18T12:08:56.828Z,6.17
2019-03-18T12:11:27.028Z,2.67
2019-03-18T12:13:57.283Z,5.80
2019-03-18T12:16:27.441Z,2.87
2019-03-18T12:18:57.673Z,10.80
2019-03-18T12:21:27.870Z,4.05
2019-03-18T12:23:58.089Z,3.40
2019-03-18T12:26:28.285Z,7.42
2019-03-18T12:28:58.502Z,7.17
2019-03-18T12:31:29.802Z,4.83
2019-03-18T12:34:00.062Z,3.00
2019-03-18T12:36:30.259Z,3.90
2019-03-18T12:39:00.609Z,8.68
2019-03-18T12:41:32.322Z,12.00
2019-03-18T12:44:02.601Z,3.45
2019-03-18T12:46:32.777Z,9.08
2019-03-18T12:49:03.043Z,5.42
2019-03-18T12:51:33.240Z,8.25
2019-03-18T12:54:03.565Z,4.20
2019-03-18T12:56:33.728Z,3.72
2019-03-18T12:59:05.093Z,2.75
2019-03-18T13:01:35.283Z,4.90
2019-03-18T13:04:05.546Z,2.67
2019-03-18T13:06:35.844Z,2.70
2019-03-18T13:09:07.811Z,5.03
2019-03-18T13:11:38.049Z,10.78
2019-03-18T13:14:08.240Z,4.15
2019-03-18T13:16:38.500Z,9.45
2019-03-18T13:19:08.696Z,5.10
2019-03-18T13:21:38.965Z,10.90
2019-03-18T13:24:09.173Z,5.72
2019-03-18T13:26:40.960Z,6.05
2019-03-18T13:29:11.156Z,3.50
2019-03-18T13:31:41.406Z,2.58
2019-03-18T13:34:11.597Z,5.90
2019-03-18T13:36:41.851Z,4.78
2019-03-18T13:39:12.043Z,4.60
2019-03-18T13:41:42.286Z,2.62
2019-03-18T13:44:12.484Z,5.00
2019-03-18T13:46:42.756Z,2.87
2019-03-18T13:49:15.811Z,11.73
2019-03-18T13:51:44.828Z,7.15
2019-03-18T13:54:15.019Z,11.20
2019-03-18T13:56:45.269Z,5.92
2019-03-18T13:59:15.459Z,6.08
2019-03-18T14:01:46.701Z,8.63
2019-03-18T14:04:16.990Z,2.77
2019-03-18T14:06:47.260Z,3.98
2019-03-18T14:09:17.456Z,4.50
2019-03-18T14:11:47.713Z,6.97
2019-03-18T14:14:17.911Z,3.60
2019-03-18T14:16:48.152Z,6.60
2019-03-18T14:19:18.348Z,2.98
2019-03-18T14:21:48.714Z,6.30
2019-03-18T14:24:20.256Z,3.65
2019-03-18T14:26:50.459Z,3.60
2019-03-18T14:29:20.615Z,6.85
2019-03-18T14:31:50.876Z,17.73
2019-03-18T14:34:21.079Z,2.72
2019-03-18T14:36:51.325Z,3.02
2019-03-18T14:39:21.551Z,4.30
2019-03-18T14:41:51.844Z,9.00
2019-03-18T14:44:21.991Z,2.12
2019-03-18T14:46:52.253Z,3.55
2019-03-18T14:49:22.502Z,7.17
2019-03-18T14:51:52.760Z,4.08
2019-03-18T14:54:22.906Z,2.70
2019-03-18T14:56:53.124Z,3.67
2019-03-18T14:59:23.271Z,6.97
2019-03-18T15:01:53.492Z,7.20
2019-03-18T15:04:23.647Z,6.40
2019-03-18T15:06:53.878Z,11.05
2019-03-18T15:09:24.026Z,6.10
2019-03-18T15:11:54.569Z,4.53
2019-03-18T15:14:24.715Z,5.37
2019-03-18T15:16:54.939Z,3.95
2019-03-18T15:19:25.110Z,4.03
2019-03-18T15:21:58.742Z,6.58
2019-03-18T15:24:27.107Z,3.90
2019-03-18T15:26:57.338Z,4.85
2019-03-18T15:29:27.502Z,7.40
2019-03-18T15:31:57.761Z,4.10
2019-03-18T15:34:27.934Z,3.85
2019-03-18T15:36:58.154Z,4.25
2019-03-18T15:39:28.320Z,4.00
2019-03-18T15:41:59.736Z,4.03
2019-03-18T15:44:29.953Z,4.17
2019-03-18T15:47:00.168Z,5.00
2019-03-18T15:49:31.599Z,4.00
2019-03-18T15:52:10.380Z,3.72
2019-03-18T15:54:33.705Z,8.73
2019-03-18T15:57:03.981Z,7.50
2019-03-18T15:59:34.299Z,4.67
2019-03-18T16:02:04.705Z,4.67
2019-03-18T16:04:34.923Z,3.72
2019-03-18T16:07:05.174Z,4.12
2019-03-18T16:09:35.392Z,7.05
2019-03-18T16:12:05.606Z,4.90
2019-03-18T16:14:40.022Z,4.10
2019-03-18T16:17:14.539Z,4.33
2019-03-18T16:19:45.312Z,5.30
2019-03-18T16:22:23.533Z,4.62
2019-03-18T16:24:47.306Z,9.23
2019-03-18T16:27:17.562Z,5.25
2019-03-18T16:29:47.728Z,8.50
2019-03-18T16:32:17.980Z,11.97
2019-03-18T16:34:48.147Z,5.00
2019-03-18T16:37:18.380Z,6.08
2019-03-18T16:39:48.580Z,4.25
2019-03-18T16:42:18.788Z,4.42
2019-03-18T16:44:48.942Z,7.10
2019-03-18T16:47:19.169Z,7.67
2019-03-18T16:49:49.322Z,3.85
2019-03-18T16:52:19.575Z,7.67
2019-03-18T16:54:49.797Z,3.02
2019-03-18T16:57:20.016Z,10.43
2019-03-18T16:59:50.227Z,4.95
2019-03-18T17:02:20.481Z,7.03
2019-03-18T17:04:50.696Z,8.68
2019-03-18T17:07:21.053Z,4.87
2019-03-18T17:09:51.291Z,5.28
2019-03-18T17:12:21.548Z,8.05
2019-03-18T17:14:51.805Z,4.47
2019-03-18T17:17:22.068Z,8.95
2019-03-18T17:19:52.281Z,4.67
2019-03-18T17:22:22.536Z,6.92
2019-03-18T17:24:52.746Z,4.28
2019-03-18T17:27:23.021Z,8.93
2019-03-18T17:29:53.210Z,6.47
2019-03-18T17:32:23.439Z,6.20
2019-03-18T17:34:53.674Z,12.23
2019-03-18T17:37:23.885Z,3.08
2019-03-18T17:39:54.357Z,4.67
2019-03-18T17:42:24.582Z,6.28
2019-03-18T17:44:54.798Z,2.87
2019-03-18T17:47:25.042Z,18.92
2019-03-18T17:49:55.255Z,6.47
2019-03-18T17:52:26.466Z,2.52
2019-03-18T17:54:56.919Z,3.70
2019-03-18T17:57:27.197Z,4.83
2019-03-18T17:59:57.387Z,4.05
2019-03-18T18:02:28.923Z,4.85
2019-03-18T18:05:03.321Z,3.90
2019-03-18T18:07:31.008Z,7.08
2019-03-18T18:10:01.261Z,6.03
2019-03-18T18:12:31.471Z,2.65
2019-03-18T18:15:01.857Z,8.33
2019-03-18T18:17:32.387Z,5.72
2019-03-18T18:20:02.553Z,10.35
2019-03-18T18:22:33.101Z,3.20
2019-03-18T18:25:03.465Z,2.90
2019-03-18T18:27:34.778Z,3.85
2019-03-18T18:30:10.802Z,5.42
2019-03-18T18:32:41.021Z,9.08
2019-03-18T18:35:12.128Z,5.42
2019-03-18T18:37:42.381Z,4.10
2019-03-18T18:40:15.098Z,3.50
2019-03-18T18:42:45.313Z,4.08
2019-03-18T18:45:15.474Z,6.37
2019-03-18T18:47:45.689Z,4.35
2019-03-18T18:50:15.900Z,3.30
2019-03-18T18:52:46.128Z,3.85
2019-03-18T18:55:16.336Z,3.75
2019-03-18T18:57:46.661Z,3.17
2019-03-18T19:00:20.915Z,2.02
2019-03-18T19:02:51.444Z,2.35
2019-03-18T19:05:21.643Z,4.65
2019-03-18T19:07:51.902Z,2.40
2019-03-18T19:10:22.362Z,3.20
2019-03-18T19:12:52.573Z,3.47
2019-03-18T19:15:24.167Z,3.80
2019-03-18T19:17:55.330Z,2.50
2019-03-18T19:20:25.552Z,3.50
2019-03-18T19:22:55.713Z,1.40
2019-03-18T19:25:25.941Z,3.37
2019-03-18T19:27:56.211Z,2.25
2019-03-18T19:30:26.421Z,4.92
2019-03-18T19:32:56.682Z,3.15
2019-03-18T19:35:28.732Z,2.95
2019-03-18T19:37:58.888Z,2.30
2019-03-18T19:40:29.231Z,3.12
2019-03-18T19:42:59.499Z,3.42
2019-03-18T19:45:29.718Z,3.05
2019-03-18T19:47:59.942Z,3.40
2019-03-18T19:50:32.512Z,3.22
2019-03-18T19:53:07.093Z,6.17
2019-03-18T19:55:38.873Z,2.60
2019-03-18T19:58:10.184Z,2.10
2019-03-18T20:00:40.584Z,4.28
2019-03-18T20:03:12.127Z,3.98
2019-03-18T20:05:42.331Z,4.90
2019-03-18T20:08:17.694Z,3.08
2019-03-18T20:10:49.650Z,2.40
2019-03-18T20:13:19.847Z,3.05
2019-03-18T20:15:49.995Z,9.85
2019-03-18T20:18:20.195Z,3.60
2019-03-18T20:20:50.475Z,3.47
2019-03-18T20:23:20.688Z,2.98
2019-03-18T20:25:50.841Z,3.58
2019-03-18T20:28:21.087Z,4.58
2019-03-18T20:30:51.284Z,3.95
2019-03-18T20:33:21.512Z,4.05
2019-03-18T20:35:51.657Z,5.15
2019-03-18T20:38:21.867Z,3.75
2019-03-18T20:40:52.009Z,4.08
2019-03-18T20:43:22.215Z,3.17
2019-03-18T20:45:52.484Z,4.35
2019-03-18T20:48:26.513Z,3.12
2019-03-18T20:50:57.378Z,6.40
2019-03-18T20:53:27.595Z,3.60
2019-03-18T20:55:57.741Z,2.35
2019-03-18T20:58:27.994Z,3.40
2019-03-18T21:00:58.145Z,2.90
2019-03-18T21:03:28.370Z,5.10
2019-03-18T21:05:58.514Z,7.25
2019-03-18T21:08:28.762Z,4.42
2019-03-18T21:10:58.973Z,3.83
2019-03-18T21:13:29.337Z,3.75
2019-03-18T21:15:59.489Z,10.93
2019-03-18T21:18:29.751Z,6.00
2019-03-18T21:20:59.897Z,4.40
2019-03-18T21:23:30.210Z,2.37
2019-03-18T21:26:00.392Z,3.17
2019-03-18T21:28:40.734Z,4.03
2019-03-18T21:31:02.385Z,3.58
2019-03-18T21:33:32.603Z,5.62
2019-03-18T21:36:02.805Z,3.20
2019-03-18T21:38:33.017Z,5.33
2019-03-18T21:41:03.176Z,5.40
2019-03-18T21:43:33.389Z,3.77
2019-03-18T21:46:03.665Z,3.50
2019-03-18T21:48:33.960Z,4.12
2019-03-18T21:51:04.116Z,4.65
2019-03-18T21:53:34.378Z,3.98
2019-03-18T21:56:05.706Z,2.33
2019-03-18T21:58:35.902Z,2.98
2019-03-18T22:01:06.108Z,3.72
2019-03-18T22:03:36.545Z,3.37
2019-03-18T22:06:06.743Z,5.10
2019-03-18T22:08:36.947Z,4.50
2019-03-18T22:11:07.206Z,2.33
2019-03-18T22:13:37.464Z,3.83
2019-03-18T22:16:07.671Z,5.53
2019-03-18T22:18:38.143Z,4.58
2019-03-18T22:21:08.354Z,13.32
2019-03-18T22:23:39.624Z,6.73
2019-03-18T22:26:09.822Z,5.47
2019-03-18T22:28:40.287Z,10.70
2019-03-18T22:31:10.501Z,3.77
2019-03-18T22:33:40.704Z,14.28
2019-03-18T22:36:10.911Z,8.20
2019-03-18T22:38:41.125Z,3.80
2019-03-18T22:41:11.332Z,5.33
2019-03-18T22:43:41.545Z,3.80
2019-03-18T22:46:11.773Z,9.13
2019-03-18T22:48:41.979Z,3.25
2019-03-18T22:51:12.179Z,2.70
2019-03-18T22:53:42.376Z,3.22
2019-03-18T22:56:12.584Z,8.05
2019-03-18T22:58:42.773Z,8.60
2019-03-18T23:01:14.553Z,5.53
2019-03-18T23:03:44.750Z,4.08
2019-03-18T23:06:14.975Z,9.20
2019-03-18T23:08:45.185Z,6.10
2019-03-18T23:11:15.440Z,7.45
2019-03-18T23:13:45.641Z,3.83
2019-03-18T23:16:15.868Z,2.72
2019-03-18T23:18:46.083Z,2.08
2019-03-18T23:21:16.286Z,2.05
2019-03-18T23:23:46.492Z,5.12
2019-03-18T23:26:16.698Z,1.85
2019-03-18T23:28:46.919Z,2.35
2019-03-18T23:31:17.126Z,2.62
2019-03-18T23:33:47.340Z,2.58
2019-03-18T23:36:17.544Z,2.50
2019-03-18T23:38:48.050Z,3.37
2019-03-18T23:41:18.266Z,3.37
2019-03-18T23:43:48.467Z,3.33
2019-03-18T23:46:18.683Z,3.00
2019-03-18T23:48:48.905Z,1.35
2019-03-18T23:51:19.106Z,2.20
2019-03-18T23:53:49.315Z,2.80
2019-03-18T23:56:19.515Z,2.52
2019-03-18T23:58:49.719Z,2.15
